createdAt,value
2018-07-10T00:02:24.765Z,3.53
2018-07-10T00:07:20.887Z,4.20
2018-07-10T00:10:02.704Z,4.03
2018-07-10T00:12:30.764Z,5.40
2018-07-10T00:14:58.900Z,8.27
2018-07-10T00:17:26.972Z,7.87
2018-07-10T00:19:55.032Z,4.53
2018-07-10T00:22:23.103Z,3.43
2018-07-10T00:24:51.193Z,6.75
2018-07-10T00:27:19.272Z,17.30
2018-07-10T00:29:47.348Z,3.67
2018-07-10T00:32:16.324Z,2.33
2018-07-10T00:34:44.405Z,4.70
2018-07-10T00:37:12.468Z,7.43
2018-07-10T00:39:40.560Z,2.97
2018-07-10T00:42:08.652Z,3.03
2018-07-10T00:44:36.727Z,8.83
2018-07-10T00:47:04.802Z,2.90
2018-07-10T00:49:32.886Z,3.20
2018-07-10T00:52:00.938Z,4.20
2018-07-10T00:54:29.031Z,3.80
2018-07-10T00:56:57.102Z,3.72
2018-07-10T00:59:25.185Z,4.60
2018-07-10T01:01:55.435Z,5.55
2018-07-10T01:04:23.632Z,3.00
2018-07-10T01:06:51.707Z,5.30
2018-07-10T01:09:19.787Z,7.50
2018-07-10T01:11:47.864Z,2.73
2018-07-10T01:14:15.920Z,2.77
2018-07-10T01:16:43.983Z,8.33
2018-07-10T01:19:14.636Z,2.20
2018-07-10T01:21:44.047Z,4.40
2018-07-10T01:24:12.111Z,4.03
2018-07-10T01:26:41.523Z,4.43
2018-07-10T01:29:19.457Z,4.37
2018-07-10T01:31:55.192Z,3.70
2018-07-10T01:34:23.699Z,3.55
2018-07-10T01:36:53.089Z,3.80
2018-07-10T01:39:21.164Z,2.70
2018-07-10T01:41:49.296Z,2.90
2018-07-10T01:44:18.327Z,3.50
2018-07-10T01:46:46.389Z,6.67
2018-07-10T01:49:14.555Z,3.93
2018-07-10T01:51:42.650Z,3.40
2018-07-10T01:54:10.720Z,2.83
2018-07-10T01:56:38.882Z,2.90
2018-07-10T01:59:06.872Z,4.80
2018-07-10T02:01:35.016Z,4.63
2018-07-10T02:04:03.102Z,3.73
2018-07-10T02:06:31.401Z,3.87
2018-07-10T02:08:59.852Z,3.45
2018-07-10T02:11:27.912Z,3.08
2018-07-10T02:13:55.994Z,4.13
2018-07-10T02:16:24.047Z,5.95
2018-07-10T02:18:52.267Z,7.90
2018-07-10T02:21:20.492Z,3.73
2018-07-10T02:23:48.526Z,6.37
2018-07-10T02:26:22.363Z,5.90
2018-07-10T02:28:51.851Z,4.50
2018-07-10T02:31:20.612Z,3.90
2018-07-10T02:33:48.880Z,4.93
2018-07-10T02:36:18.073Z,3.53
2018-07-10T02:38:48.443Z,3.67
2018-07-10T02:41:21.688Z,5.70
2018-07-10T02:43:56.004Z,3.43
2018-07-10T02:46:25.146Z,7.13
2018-07-10T02:48:54.505Z,5.75
2018-07-10T02:51:22.619Z,3.90
2018-07-10T02:53:50.711Z,2.80
2018-07-10T02:56:20.641Z,3.37
2018-07-10T02:58:49.825Z,3.13
2018-07-10T03:01:18.325Z,2.73
2018-07-10T03:03:46.385Z,5.50
2018-07-10T03:06:14.731Z,5.40
2018-07-10T03:08:43.088Z,2.98
2018-07-10T03:11:13.129Z,4.80
2018-07-10T03:13:41.527Z,3.77
2018-07-10T03:16:09.600Z,6.87
2018-07-10T03:18:37.672Z,5.25
2018-07-10T03:21:05.731Z,5.60
2018-07-10T03:23:33.803Z,8.60
2018-07-10T03:26:02.063Z,6.90
2018-07-10T03:28:30.190Z,3.35
2018-07-10T03:30:58.542Z,3.95
2018-07-10T03:33:26.614Z,2.67
2018-07-10T03:35:54.680Z,5.50
2018-07-10T03:38:23.484Z,3.30
2018-07-10T03:40:52.188Z,3.70
2018-07-10T03:43:20.254Z,4.40
2018-07-10T03:45:49.167Z,7.13
2018-07-10T03:48:17.573Z,2.80
2018-07-10T03:50:45.643Z,3.52
2018-07-10T03:53:13.703Z,3.03
2018-07-10T03:55:41.767Z,4.20
2018-07-10T03:58:11.043Z,2.53
2018-07-10T04:00:39.382Z,2.73
2018-07-10T04:03:07.672Z,2.80
2018-07-10T04:05:35.765Z,3.43
2018-07-10T04:08:05.631Z,7.12
2018-07-10T04:10:38.212Z,6.83
2018-07-10T04:13:22.275Z,6.30
2018-07-10T04:15:53.703Z,4.93
2018-07-10T04:18:22.872Z,5.37
2018-07-10T04:20:55.884Z,3.95
2018-07-10T04:23:26.108Z,4.80
2018-07-10T04:25:55.355Z,8.13
2018-07-10T04:28:28.917Z,3.07
2018-07-10T04:31:06.815Z,10.87
2018-07-10T04:33:34.890Z,8.30
2018-07-10T04:38:44.000Z,5.27
2018-07-10T04:41:19.284Z,6.40
2018-07-10T04:43:53.999Z,5.20
2018-07-10T04:46:25.777Z,10.33
2018-07-10T04:49:07.478Z,8.07
2018-07-10T04:51:39.970Z,6.87
2018-07-10T04:55:14.051Z,9.83
2018-07-10T04:57:55.208Z,7.53
2018-07-10T05:00:23.303Z,8.20
2018-07-10T05:02:52.196Z,21.40
2018-07-10T05:05:20.286Z,16.00
2018-07-10T05:07:48.384Z,22.93
2018-07-10T05:10:18.124Z,18.17
2018-07-10T05:12:46.403Z,13.87
2018-07-10T05:15:14.808Z,16.63
2018-07-10T05:17:44.111Z,29.00
2018-07-10T05:20:12.255Z,20.23
2018-07-10T05:22:42.704Z,22.00
2018-07-10T05:25:10.810Z,23.30
2018-07-10T05:27:38.884Z,24.45
2018-07-10T05:30:06.984Z,27.07
2018-07-10T05:32:37.924Z,27.10
2018-07-10T05:35:05.981Z,32.00
2018-07-10T05:37:38.621Z,21.40
2018-07-10T05:40:10.077Z,16.33
2018-07-10T05:42:48.994Z,29.70
2018-07-10T05:45:20.664Z,27.37
2018-07-10T05:47:53.952Z,20.23
2018-07-10T05:50:22.052Z,9.27
2018-07-10T05:52:50.349Z,7.33
2018-07-10T05:55:23.880Z,9.28
2018-07-10T05:57:52.589Z,7.20
2018-07-10T06:00:21.779Z,8.10
2018-07-10T06:02:49.855Z,8.40
2018-07-10T06:05:17.944Z,10.15
2018-07-10T06:07:48.081Z,10.57
2018-07-10T06:10:16.163Z,9.43
2018-07-10T06:12:44.352Z,21.52
2018-07-10T06:15:14.330Z,16.52
2018-07-10T06:17:42.775Z,9.50
2018-07-10T06:20:10.853Z,7.43
2018-07-10T06:22:39.228Z,12.83
2018-07-10T06:28:09.711Z,11.33
2018-07-10T06:30:39.435Z,15.03
2018-07-10T06:33:25.221Z,7.13
2018-07-10T06:36:07.214Z,7.97
2018-07-10T06:38:39.529Z,8.93
2018-07-10T06:41:08.113Z,12.15
2018-07-10T06:43:47.610Z,14.23
2018-07-10T06:46:16.268Z,8.40
2018-07-10T06:48:45.788Z,12.83
2018-07-10T06:51:16.864Z,13.88
2018-07-10T06:53:47.060Z,16.33
2018-07-10T06:56:24.191Z,8.53
2018-07-10T06:58:52.264Z,9.57
2018-07-10T07:01:20.409Z,11.03
2018-07-10T07:03:48.460Z,8.77
2018-07-10T07:06:16.536Z,9.18
2018-07-10T07:08:44.592Z,8.90
2018-07-10T07:11:12.670Z,9.87
2018-07-10T07:13:40.748Z,12.25
2018-07-10T07:16:08.819Z,11.03
2018-07-10T07:18:36.903Z,12.10
2018-07-10T07:21:04.990Z,10.80
2018-07-10T07:23:33.600Z,13.28
2018-07-10T07:26:01.696Z,9.50
2018-07-10T07:28:30.909Z,15.27
2018-07-10T07:30:59.075Z,10.27
2018-07-10T07:33:27.139Z,10.07
2018-07-10T07:35:55.540Z,9.20
2018-07-10T07:38:23.635Z,9.67
2018-07-10T07:40:52.506Z,17.30
2018-07-10T07:43:20.731Z,9.03
2018-07-10T07:48:24.559Z,8.80
2018-07-10T07:50:52.676Z,9.23
2018-07-10T07:53:20.767Z,14.67
2018-07-10T07:55:49.092Z,9.13
2018-07-10T07:58:17.169Z,10.40
2018-07-10T08:00:45.234Z,7.73
2018-07-10T08:03:13.381Z,15.70
2018-07-10T08:05:41.455Z,9.27
2018-07-10T08:08:09.548Z,12.83
2018-07-10T08:10:37.633Z,10.27
2018-07-10T08:13:05.781Z,9.10
2018-07-10T08:15:37.292Z,10.45
2018-07-10T08:18:05.979Z,11.35
2018-07-10T08:20:34.570Z,12.07
2018-07-10T08:23:03.362Z,11.10
2018-07-10T08:25:31.667Z,8.40
2018-07-10T08:28:00.152Z,12.37
2018-07-10T08:30:28.240Z,15.47
2018-07-10T08:32:56.316Z,18.63
2018-07-10T08:35:24.407Z,14.30
2018-07-10T08:37:52.953Z,15.83
2018-07-10T08:40:21.009Z,16.90
2018-07-10T08:42:49.092Z,17.40
2018-07-10T08:45:17.995Z,19.07
2018-07-10T08:47:46.073Z,17.45
2018-07-10T08:50:14.359Z,16.27
2018-07-10T08:52:42.444Z,15.60
2018-07-10T08:55:10.569Z,15.13
2018-07-10T08:57:38.675Z,16.40
2018-07-10T09:00:07.227Z,17.17
2018-07-10T09:02:35.310Z,14.60
2018-07-10T09:05:03.393Z,17.92
2018-07-10T09:07:31.471Z,14.07
2018-07-10T09:09:59.556Z,15.23
2018-07-10T09:12:27.656Z,20.47
2018-07-10T09:14:55.730Z,12.80
2018-07-10T09:17:23.800Z,11.83
2018-07-10T09:19:51.857Z,10.83
2018-07-10T09:22:19.975Z,10.80
2018-07-10T09:24:54.801Z,9.15
2018-07-10T09:27:23.643Z,8.40
2018-07-10T09:29:51.871Z,8.70
2018-07-10T09:32:26.523Z,10.95
2018-07-10T09:34:56.564Z,7.97
2018-07-10T09:37:30.013Z,8.23
2018-07-10T09:43:06.012Z,9.37
2018-07-10T09:45:36.437Z,8.13
2018-07-10T09:48:05.693Z,8.43
2018-07-10T09:50:33.817Z,8.40
2018-07-10T09:53:02.819Z,9.83
2018-07-10T09:55:31.145Z,10.33
2018-07-10T09:58:00.767Z,8.93
2018-07-10T10:00:34.680Z,8.67
2018-07-10T10:03:03.569Z,7.80
2018-07-10T10:05:40.844Z,7.70
2018-07-10T10:08:09.177Z,7.67
2018-07-10T10:10:37.781Z,8.00
2018-07-10T10:13:06.131Z,8.03
2018-07-10T10:15:35.349Z,8.03
2018-07-10T10:18:06.301Z,9.97
2018-07-10T10:20:37.280Z,8.20
2018-07-10T10:23:06.002Z,7.33
2018-07-10T10:25:37.375Z,7.13
2018-07-10T10:28:08.185Z,9.27
2018-07-10T10:30:37.932Z,6.37
2018-07-10T10:33:06.633Z,11.50
2018-07-10T10:35:35.191Z,8.23
2018-07-10T10:38:04.312Z,12.73
2018-07-10T10:40:38.393Z,7.87
2018-07-10T10:43:10.604Z,13.93
2018-07-10T10:45:41.130Z,9.37
2018-07-10T10:48:10.400Z,11.85
2018-07-10T10:50:39.984Z,9.23
2018-07-10T10:53:09.068Z,9.53
2018-07-10T10:55:37.268Z,9.40
2018-07-10T10:58:06.112Z,8.43
2018-07-10T11:00:35.592Z,8.53
2018-07-10T11:03:04.134Z,7.87
2018-07-10T11:05:33.757Z,8.23
2018-07-10T11:08:02.365Z,18.43
2018-07-10T11:10:30.985Z,6.72
2018-07-10T11:12:59.337Z,8.43
2018-07-10T11:15:27.536Z,8.93
2018-07-10T11:18:02.235Z,6.90
2018-07-10T11:20:44.189Z,7.50
2018-07-10T11:23:17.778Z,7.57
2018-07-10T11:25:47.196Z,6.96
2018-07-10T11:28:15.288Z,7.20
2018-07-10T11:30:43.396Z,8.30
2018-07-10T11:33:12.196Z,11.83
2018-07-10T11:35:41.384Z,7.40
2018-07-10T11:38:11.720Z,8.50
2018-07-10T11:40:42.720Z,9.20
2018-07-10T11:43:12.535Z,9.28
2018-07-10T11:45:42.123Z,7.77
2018-07-10T11:48:10.873Z,7.07
2018-07-10T11:50:39.268Z,7.57
2018-07-10T11:53:07.346Z,6.30
2018-07-10T11:55:36.541Z,8.23
2018-07-10T11:58:07.440Z,9.40
2018-07-10T12:00:35.645Z,10.70
2018-07-10T12:03:05.532Z,7.80
2018-07-10T12:05:35.095Z,8.60
2018-07-10T12:08:03.202Z,8.47
2018-07-10T12:10:32.478Z,13.03
2018-07-10T12:13:00.669Z,9.97
2018-07-10T12:15:28.751Z,7.40
2018-07-10T12:17:57.884Z,10.00
2018-07-10T12:20:30.859Z,11.78
2018-07-10T12:23:00.070Z,9.07
2018-07-10T12:25:31.013Z,6.07
2018-07-10T12:27:59.166Z,5.92
2018-07-10T12:30:28.128Z,6.27
2018-07-10T12:32:56.308Z,6.53
2018-07-10T12:35:24.383Z,6.90
2018-07-10T12:37:52.596Z,9.20
2018-07-10T12:40:20.702Z,9.43
2018-07-10T12:42:48.812Z,8.40
2018-07-10T12:45:16.896Z,5.97
2018-07-10T12:47:44.976Z,6.83
2018-07-10T12:50:13.605Z,7.80
2018-07-10T12:52:42.662Z,6.33
2018-07-10T12:55:11.105Z,5.40
2018-07-10T12:57:42.416Z,7.33
2018-07-10T13:00:10.608Z,6.83
2018-07-10T13:02:43.648Z,8.00
2018-07-10T13:05:13.197Z,9.40
2018-07-10T13:07:41.467Z,7.57
2018-07-10T13:10:09.575Z,5.50
2018-07-10T13:12:37.885Z,11.33
2018-07-10T13:15:06.093Z,6.73
2018-07-10T13:17:35.510Z,5.33
2018-07-10T13:20:05.042Z,5.27
2018-07-10T13:22:33.148Z,7.00
2018-07-10T13:25:01.820Z,6.03
2018-07-10T13:27:29.916Z,8.00
2018-07-10T18:05:57.838Z,2.60
2018-07-10T18:08:26.280Z,2.70
2018-07-10T18:10:55.449Z,6.40
2018-07-10T18:13:23.604Z,2.30
2018-07-10T18:15:52.052Z,5.40
2018-07-10T18:27:07.158Z,2.47
2018-07-10T18:29:35.408Z,3.00
2018-07-10T18:32:03.597Z,3.62
2018-07-10T18:34:31.734Z,3.00
2018-07-10T18:36:59.848Z,2.30
2018-07-10T18:39:28.111Z,2.23
2018-07-10T18:41:57.352Z,2.85
2018-07-10T18:44:25.840Z,2.98
2018-07-10T18:46:53.992Z,5.03
2018-07-10T18:49:22.325Z,2.90
2018-07-10T18:51:50.548Z,2.27
2018-07-10T18:54:28.823Z,2.23
2018-07-10T18:56:58.037Z,3.25
2018-07-10T18:59:29.790Z,4.60
2018-07-10T19:02:01.301Z,2.53
2018-07-10T19:05:04.708Z,3.03
2018-07-10T19:07:34.362Z,2.53
2018-07-10T19:10:02.874Z,2.43
2018-07-10T19:12:30.968Z,2.60
2018-07-10T19:14:59.119Z,3.13
2018-07-10T19:17:30.612Z,3.10
2018-07-10T19:20:02.144Z,4.20
2018-07-10T19:22:37.212Z,2.97
2018-07-10T19:25:06.235Z,2.07
2018-07-10T19:27:34.317Z,6.20
2018-07-10T19:30:07.257Z,3.60
2018-07-10T19:32:35.735Z,3.20
2018-07-10T19:35:03.800Z,2.57
2018-07-10T19:37:33.743Z,4.10
2018-07-10T19:40:01.988Z,3.40
2018-07-10T19:42:31.765Z,2.30
2018-07-10T19:45:01.857Z,2.30
2018-07-10T19:47:31.908Z,2.73
2018-07-10T19:50:08.011Z,3.12
2018-07-10T19:52:36.242Z,8.08
2018-07-10T19:55:04.416Z,2.30
2018-07-10T19:57:48.588Z,2.43
2018-07-10T20:00:17.146Z,6.25
2018-07-10T20:02:47.200Z,8.40
2018-07-10T20:05:16.624Z,5.10
2018-07-10T20:07:50.836Z,4.22
2018-07-10T20:10:39.392Z,2.87
2018-07-10T20:13:10.879Z,8.73
2018-07-10T20:15:49.828Z,17.30
2018-07-10T20:18:49.455Z,11.53
2018-07-10T20:21:26.345Z,6.87
2018-07-10T20:24:05.636Z,14.37
2018-07-10T20:26:42.033Z,14.50
2018-07-10T20:29:18.693Z,12.90
2018-07-10T20:32:02.355Z,13.58
2018-07-10T20:34:44.316Z,10.73
2018-07-10T20:37:27.888Z,14.73
2018-07-10T20:39:57.511Z,16.20
2018-07-10T20:42:31.849Z,7.03
2018-07-10T20:45:06.240Z,12.20
2018-07-10T20:47:44.803Z,10.17
2018-07-10T20:50:18.308Z,11.07
2018-07-10T20:52:52.792Z,6.73
2018-07-10T20:55:22.024Z,10.53
2018-07-10T20:58:00.334Z,4.75
2018-07-10T21:00:31.384Z,4.50
2018-07-10T21:03:16.517Z,8.45
2018-07-10T21:05:48.462Z,4.77
2018-07-10T21:08:29.864Z,5.92
2018-07-10T21:11:05.749Z,3.83
2018-07-10T21:13:43.656Z,5.42
2018-07-10T21:16:25.692Z,4.50
2018-07-10T21:19:02.634Z,2.67
2018-07-10T21:22:00.544Z,2.50
2018-07-10T21:24:37.441Z,5.00
2018-07-10T21:27:13.285Z,2.40
2018-07-10T21:29:49.018Z,3.30
2018-07-10T21:34:36.266Z,3.27
2018-07-10T21:37:13.845Z,3.67
2018-07-10T21:40:54.637Z,10.87
2018-07-10T21:43:32.815Z,2.60
2018-07-10T21:46:45.376Z,6.27
2018-07-10T21:49:51.798Z,6.05
2018-07-10T21:52:20.446Z,3.10
2018-07-10T21:54:49.132Z,7.27
2018-07-10T21:57:19.861Z,4.97
2018-07-10T22:02:43.145Z,3.43
2018-07-10T22:05:11.884Z,3.08
2018-07-10T22:07:40.557Z,4.60
2018-07-10T22:10:09.611Z,4.43
2018-07-10T22:12:43.169Z,6.90
2018-07-10T22:15:12.181Z,5.80
2018-07-10T22:17:41.279Z,4.07
2018-07-10T22:20:09.857Z,3.70
2018-07-10T22:22:38.446Z,5.10
2018-07-10T22:25:08.846Z,3.00
2018-07-10T22:27:40.500Z,5.83
2018-07-10T22:30:17.097Z,3.00
2018-07-10T22:32:51.734Z,5.12
2018-07-10T22:35:20.347Z,2.57
2018-07-10T22:37:49.032Z,2.85
2018-07-10T22:40:18.595Z,4.65
2018-07-10T22:42:47.292Z,3.93
2018-07-10T22:45:17.097Z,3.92
2018-07-10T22:47:45.561Z,2.50
2018-07-10T22:50:17.885Z,3.43
2018-07-10T22:52:54.897Z,4.40
2018-07-10T22:55:28.745Z,2.07
2018-07-10T22:58:05.467Z,2.43
2018-07-10T23:00:36.057Z,2.40
2018-07-10T23:05:56.901Z,2.90
2018-07-10T23:08:35.201Z,2.67
2018-07-10T23:11:04.671Z,6.63
2018-07-10T23:13:34.220Z,2.27
2018-07-10T23:16:02.922Z,4.37
2018-07-10T23:18:31.480Z,4.40
2018-07-10T23:21:00.136Z,2.20
2018-07-10T23:23:28.591Z,5.30
2018-07-10T23:25:57.357Z,3.37
2018-07-10T23:28:27.267Z,3.97
2018-07-10T23:30:57.779Z,2.57
2018-07-10T23:33:26.798Z,6.72
2018-07-10T23:35:59.114Z,6.22
2018-07-10T23:38:38.989Z,3.50
2018-07-10T23:41:17.778Z,8.60
2018-07-10T23:43:47.961Z,8.50
2018-07-10T23:46:52.030Z,4.53
2018-07-10T23:49:20.889Z,4.53
2018-07-10T23:52:00.707Z,3.10
2018-07-10T23:54:29.196Z,2.43
2018-07-10T23:56:58.298Z,2.97
2018-07-10T23:59:26.698Z,4.58
